Time;durP1;ratioP1;P1;durP2;ratioP2;P2;SDS_P1;SDS_P2;PMS_P1;PMS_P2;Temp;Humidity;BMP_temperature;BMP_pressure;BME280_temperature;BME280_humidity;BME280_pressure;Samples;Min_cycle;Max_cycle;Signal;HPM_P1;HPM_P2
2022/07/12 00:00:23;;;;;;;1.30;1.13;;;17.40;99.90;;;;;;2085317;28;20021;-72
2022/07/12 00:01:23;;;;;;;1.50;1.08;;;17.40;99.90;;;;;;2086072;28;20464;-72
2022/07/12 00:02:24;;;;;;;1.00;1.00;;;17.40;99.90;;;;;;2085957;28;20009;-72
2022/07/12 00:03:25;;;;;;;1.60;1.20;;;17.40;99.90;;;;;;2086733;28;20053;-72
2022/07/12 00:04:26;;;;;;;1.23;1.00;;;17.40;99.90;;;;;;2084638;28;20021;-72
2022/07/12 00:05:27;;;;;;;2.30;1.20;;;17.40;99.90;;;;;;2085163;28;20481;-72
2022/07/12 00:06:28;;;;;;;1.15;1.08;;;17.40;99.90;;;;;;2086356;28;20501;-72
2022/07/12 00:07:28;;;;;;;1.13;1.00;;;17.40;99.90;;;;;;2088978;28;20027;-72
2022/07/12 00:08:29;;;;;;;1.67;1.10;;;17.40;99.90;;;;;;2084195;28;20021;-72
2022/07/12 00:09:29;;;;;;;1.42;1.30;;;17.30;99.90;;;;;;2087916;28;20051;-72
2022/07/12 00:10:30;;;;;;;1.35;1.05;;;17.30;99.90;;;;;;2083725;28;20517;-72
2022/07/12 00:11:31;;;;;;;1.80;1.33;;;17.30;99.90;;;;;;2083521;28;20488;-72
2022/07/12 00:12:31;;;;;;;1.77;1.10;;;17.30;99.90;;;;;;2083814;28;20416;-72
2022/07/12 00:13:32;;;;;;;1.40;1.30;;;17.30;99.90;;;;;;2083307;28;20034;-72
2022/07/12 00:14:33;;;;;;;1.15;0.90;;;17.30;99.90;;;;;;2083608;28;20385;-72
2022/07/12 00:15:33;;;;;;;1.30;1.20;;;17.30;99.90;;;;;;2085732;28;20021;-72
2022/07/12 00:16:34;;;;;;;1.30;1.20;;;17.20;99.90;;;;;;2080126;28;20021;-72
2022/07/12 00:17:34;;;;;;;1.45;1.30;;;17.20;99.90;;;;;;2086053;28;20095;-72
2022/07/12 00:18:35;;;;;;;1.10;1.08;;;17.20;99.90;;;;;;2086406;28;20100;-72
2022/07/12 00:19:36;;;;;;;0.90;0.90;;;17.20;99.90;;;;;;2086894;28;20524;-72
2022/07/12 00:20:37;;;;;;;1.40;1.30;;;17.20;99.90;;;;;;2086577;28;20033;-72
2022/07/12 00:21:37;;;;;;;1.02;0.90;;;17.20;99.90;;;;;;2084871;28;20029;-72
2022/07/12 00:22:38;;;;;;;1.17;1.10;;;17.20;99.90;;;;;;2086600;28;20534;-72
2022/07/12 00:23:39;;;;;;;1.27;0.93;;;17.10;99.90;;;;;;2083323;28;20021;-72
2022/07/12 00:24:40;;;;;;;1.40;1.00;;;17.10;99.90;;;;;;2083547;28;20040;-72
2022/07/12 00:25:41;;;;;;;2.08;0.88;;;17.10;99.90;;;;;;2084999;28;20017;-72
2022/07/12 00:26:41;;;;;;;0.80;0.80;;;17.10;99.90;;;;;;2085095;28;20121;-72
2022/07/12 00:27:42;;;;;;;1.27;1.20;;;17.10;99.90;;;;;;2085054;28;20048;-72
2022/07/12 00:28:43;;;;;;;2.25;1.10;;;17.10;99.90;;;;;;2084893;28;20085;-72
2022/07/12 00:29:44;;;;;;;1.40;1.20;;;17.10;99.90;;;;;;2087152;28;20060;-72
2022/07/12 00:30:44;;;;;;;1.40;1.25;;;17.10;99.90;;;;;;2080563;28;20048;-72
2022/07/12 00:31:45;;;;;;;1.50;0.98;;;17.00;99.90;;;;;;2086155;28;20021;-72
2022/07/12 00:32:47;;;;;;;1.45;1.25;;;17.10;99.90;;;;;;2083388;28;20158;-72
2022/07/12 00:33:48;;;;;;;1.30;1.20;;;17.00;99.90;;;;;;2086814;28;20028;-72
2022/07/12 00:34:48;;;;;;;1.30;1.20;;;17.00;99.90;;;;;;2086477;28;20041;-72
2022/07/12 00:35:49;;;;;;;1.27;1.17;;;17.00;99.90;;;;;;2086163;28;20029;-72
2022/07/12 00:36:49;;;;;;;1.30;1.20;;;17.00;99.90;;;;;;2085833;28;20026;-72
2022/07/12 00:37:50;;;;;;;1.85;1.20;;;17.00;99.90;;;;;;2083934;28;20026;-72
2022/07/12 00:38:51;;;;;;;1.55;1.38;;;17.00;99.90;;;;;;2080836;28;20071;-72
2022/07/12 00:39:52;;;;;;;2.35;1.00;;;16.90;99.90;;;;;;2088228;28;20494;-72
2022/07/12 00:40:52;;;;;;;1.30;1.10;;;16.90;99.90;;;;;;2085188;28;20028;-72
2022/07/12 00:41:53;;;;;;;2.22;1.88;;;16.90;99.90;;;;;;2085696;28;20048;-72
2022/07/12 00:42:53;;;;;;;1.20;1.10;;;16.90;99.90;;;;;;2086401;28;20028;-72
2022/07/12 00:43:54;;;;;;;1.20;1.10;;;16.90;99.90;;;;;;2085043;28;20018;-72
2022/07/12 00:44:55;;;;;;;2.90;1.30;;;16.90;99.90;;;;;;2081814;28;20028;-72
2022/07/12 00:45:56;;;;;;;2.10;1.38;;;16.90;99.90;;;;;;2083828;28;20022;-72
2022/07/12 00:47:03;;;;;;;1.30;1.20;;;16.80;99.90;;;;;;2086023;28;20120;-72
2022/07/12 00:48:04;;;;;;;4.68;1.35;;;16.80;99.90;;;;;;2089832;28;20064;-72
2022/07/12 00:49:05;;;;;;;1.50;1.17;;;16.80;99.90;;;;;;2089077;28;20032;-72
2022/07/12 00:50:12;;;;;;;1.65;1.17;;;16.80;99.90;;;;;;2089243;28;20051;-72
2022/07/12 00:51:13;;;;;;;1.73;1.40;;;16.80;99.90;;;;;;2083782;28;20037;-72
2022/07/12 00:52:13;;;;;;;1.17;1.13;;;16.80;99.90;;;;;;2084767;28;20029;-72
2022/07/12 00:53:16;;;;;;;1.35;1.25;;;16.80;99.90;;;;;;2085094;28;20508;-72
2022/07/12 00:54:17;;;;;;;0.85;0.85;;;16.80;99.90;;;;;;2084220;28;20566;-72
2022/07/12 00:55:18;;;;;;;0.80;0.80;;;16.70;99.90;;;;;;2082503;28;20398;-72
2022/07/12 00:56:19;;;;;;;2.20;1.30;;;16.70;99.90;;;;;;2085857;28;20110;-72
2022/07/12 00:57:20;;;;;;;1.33;1.23;;;16.70;99.90;;;;;;2085682;28;20037;-72
2022/07/12 00:58:22;;;;;;;3.35;1.27;;;16.70;99.90;;;;;;2085753;28;20947;-72
2022/07/12 00:59:23;;;;;;;2.03;1.15;;;16.70;99.90;;;;;;2087030;28;20380;-72
2022/07/12 01:00:27;;;;;;;1.42;1.10;;;16.70;99.90;;;;;;2085485;28;20100;-71
2022/07/12 01:01:28;;;;;;;1.27;1.17;;;16.70;99.90;;;;;;2084734;28;20465;-72
2022/07/12 01:02:29;;;;;;;1.40;1.30;;;16.60;99.90;;;;;;2085028;28;20057;-72
2022/07/12 01:03:30;;;;;;;0.88;0.88;;;16.60;99.90;;;;;;2084772;28;20029;-72
2022/07/12 01:04:30;;;;;;;1.02;1.02;;;16.60;99.90;;;;;;2084969;28;20184;-72
2022/07/12 01:05:31;;;;;;;1.25;1.08;;;16.60;99.90;;;;;;2080314;28;20051;-72
2022/07/12 01:06:33;;;;;;;1.40;1.30;;;16.60;99.90;;;;;;2085359;28;20052;-72
2022/07/12 01:07:35;;;;;;;1.60;1.48;;;16.60;99.90;;;;;;2087094;28;20098;-72
2022/07/12 01:08:37;;;;;;;1.40;1.30;;;16.50;99.90;;;;;;2085502;28;20473;-72
2022/07/12 01:09:38;;;;;;;1.35;1.25;;;16.60;99.90;;;;;;2084717;28;20115;-72
2022/07/12 01:10:40;;;;;;;1.38;1.27;;;16.60;99.90;;;;;;2082297;28;20026;-72
2022/07/12 01:11:41;;;;;;;1.60;1.48;;;16.60;99.90;;;;;;2082914;28;20095;-72
2022/07/12 01:12:42;;;;;;;1.67;1.58;;;16.50;99.90;;;;;;2086252;28;20083;-72
2022/07/12 01:13:44;;;;;;;1.60;1.50;;;16.50;99.90;;;;;;2087616;28;20083;-72
2022/07/12 01:14:46;;;;;;;1.42;1.20;;;16.50;99.90;;;;;;2084623;28;20033;-72
2022/07/12 01:15:48;;;;;;;1.30;1.20;;;16.50;99.90;;;;;;2086157;28;20543;-72
2022/07/12 01:16:49;;;;;;;1.00;0.98;;;16.50;99.90;;;;;;2085637;28;20071;-72
2022/07/12 01:17:50;;;;;;;1.42;1.33;;;16.50;99.90;;;;;;2085868;28;20032;-72
2022/07/12 01:18:52;;;;;;;1.17;1.10;;;16.40;99.90;;;;;;2085873;28;20089;-72
2022/07/12 01:19:55;;;;;;;1.40;1.30;;;16.40;99.90;;;;;;2087661;28;20025;-72
2022/07/12 01:20:56;;;;;;;1.20;1.08;;;16.40;99.90;;;;;;2086465;28;20022;-72
2022/07/12 01:22:01;;;;;;;1.05;0.95;;;16.40;99.90;;;;;;2087011;28;20021;-72
2022/07/12 01:23:02;;;;;;;2.03;1.42;;;16.40;99.90;;;;;;2085350;28;20799;-72
2022/07/12 01:24:08;;;;;;;1.20;1.10;;;16.40;99.90;;;;;;2084385;28;20071;-72
2022/07/12 01:25:09;;;;;;;1.00;1.00;;;16.40;99.90;;;;;;2085658;28;20028;-72
2022/07/12 01:26:09;;;;;;;1.20;1.17;;;16.40;99.90;;;;;;2083735;28;20029;-72
2022/07/12 01:27:11;;;;;;;1.17;1.10;;;16.30;99.90;;;;;;2083258;28;20021;-72
2022/07/12 01:28:12;;;;;;;1.63;1.52;;;16.30;99.90;;;;;;2084873;28;20100;-72
2022/07/12 01:29:14;;;;;;;1.88;1.30;;;16.30;99.90;;;;;;2084003;28;20096;-72
2022/07/12 01:30:15;;;;;;;1.30;1.20;;;16.30;99.90;;;;;;2083685;28;20034;-72
2022/07/12 01:31:16;;;;;;;1.13;1.08;;;16.30;99.90;;;;;;2083928;28;20476;-72
2022/07/12 01:32:26;;;;;;;1.98;1.30;;;16.30;99.90;;;;;;2085706;28;20139;-72
2022/07/12 01:33:27;;;;;;;1.30;1.20;;;16.30;99.90;;;;;;2083634;28;20029;-72
2022/07/12 01:34:28;;;;;;;1.63;1.33;;;16.20;99.90;;;;;;2084687;28;20068;-72
2022/07/12 01:35:30;;;;;;;2.75;1.30;;;16.20;99.90;;;;;;2083837;28;20531;-72
2022/07/12 01:36:41;;;;;;;1.65;1.35;;;16.20;99.90;;;;;;2084063;28;20946;-72
2022/07/12 01:37:42;;;;;;;1.27;1.17;;;16.20;99.90;;;;;;2083439;28;20083;-72
2022/07/12 01:38:42;;;;;;;1.40;1.30;;;16.20;99.90;;;;;;2082347;28;20025;-72
2022/07/12 01:39:48;;;;;;;1.33;1.23;;;16.20;99.90;;;;;;2084243;28;20021;-72
2022/07/12 01:40:48;;;;;;;1.38;1.15;;;16.20;99.90;;;;;;2083247;28;20025;-72
2022/07/12 01:41:49;;;;;;;1.92;1.10;;;16.10;99.90;;;;;;2082796;28;20028;-72
2022/07/12 01:42:51;;;;;;;1.50;1.20;;;16.10;99.90;;;;;;2081946;28;20385;-72
2022/07/12 01:43:52;;;;;;;1.30;1.20;;;16.10;99.90;;;;;;2086489;28;20417;-72
2022/07/12 01:44:54;;;;;;;1.75;1.50;;;16.10;99.90;;;;;;2086357;28;20443;-72
2022/07/12 01:45:54;;;;;;;1.05;0.95;;;16.10;99.90;;;;;;2082478;28;20022;-72
2022/07/12 01:46:55;;;;;;;1.80;1.33;;;16.10;99.90;;;;;;2083204;28;20109;-72
2022/07/12 01:47:58;;;;;;;1.13;1.02;;;16.10;99.90;;;;;;2085668;28;20067;-72
2022/07/12 01:48:59;;;;;;;1.27;1.17;;;16.10;99.90;;;;;;2082284;28;20033;-72
2022/07/12 01:50:00;;;;;;;1.20;0.82;;;16.10;99.90;;;;;;2083453;28;20167;-72
2022/07/12 01:51:01;;;;;;;1.30;0.98;;;16.00;99.90;;;;;;2085623;28;20112;-72
2022/07/12 01:52:01;;;;;;;1.20;1.10;;;16.00;99.90;;;;;;2090581;28;20029;-72
2022/07/12 01:53:07;;;;;;;1.48;1.35;;;16.00;99.90;;;;;;2093374;28;20107;-72
2022/07/12 01:54:08;;;;;;;1.67;1.25;;;16.00;99.90;;;;;;2086319;28;20078;-72
2022/07/12 01:55:10;;;;;;;1.45;0.98;;;16.00;99.90;;;;;;2087009;28;20072;-72
2022/07/12 01:56:11;;;;;;;1.50;1.20;;;16.00;99.90;;;;;;2085655;28;20491;-72
2022/07/12 01:57:12;;;;;;;1.33;1.23;;;16.00;99.90;;;;;;2084334;28;20595;-72
2022/07/12 01:58:13;;;;;;;1.38;1.27;;;16.00;99.90;;;;;;2084475;28;20026;-72
2022/07/12 01:59:14;;;;;;;7.05;1.45;;;16.00;99.90;;;;;;2084326;28;20075;-72
2022/07/12 02:00:14;;;;;;;1.30;1.25;;;16.00;99.90;;;;;;2086539;28;20033;-72
2022/07/12 02:01:15;;;;;;;1.40;0.90;;;15.90;99.90;;;;;;2084184;28;20032;-72
2022/07/12 02:02:16;;;;;;;2.47;1.60;;;15.90;99.90;;;;;;2086816;28;20052;-72
2022/07/12 02:03:18;;;;;;;2.45;1.10;;;15.90;99.90;;;;;;2085855;28;20032;-72
2022/07/12 02:04:18;;;;;;;1.42;1.33;;;15.90;99.90;;;;;;2085129;28;20041;-72
2022/07/12 02:05:19;;;;;;;1.40;1.30;;;15.90;99.90;;;;;;2084972;28;20108;-72
2022/07/12 02:06:20;;;;;;;1.45;1.27;;;15.90;99.90;;;;;;2083524;28;20151;-72
2022/07/12 02:07:23;;;;;;;1.48;1.38;;;15.90;99.90;;;;;;2089138;28;20056;-72
2022/07/12 02:08:24;;;;;;;1.92;1.10;;;15.90;99.90;;;;;;2086784;28;20036;-72
2022/07/12 02:09:24;;;;;;;1.20;1.10;;;15.90;99.90;;;;;;2088295;28;20061;-72
2022/07/12 02:10:25;;;;;;;1.70;1.52;;;15.90;99.90;;;;;;2086169;28;20025;-72
2022/07/12 02:11:26;;;;;;;1.05;1.05;;;15.90;99.90;;;;;;2086377;28;20033;-72
2022/07/12 02:12:26;;;;;;;1.02;1.02;;;15.90;99.90;;;;;;2083195;28;20029;-72
2022/07/12 02:13:27;;;;;;;1.45;1.35;;;15.90;99.90;;;;;;2087936;28;20493;-71
2022/07/12 02:14:28;;;;;;;0.93;0.93;;;15.80;99.90;;;;;;2086264;28;20036;-72
2022/07/12 02:15:28;;;;;;;1.30;1.20;;;15.80;99.90;;;;;;2082098;28;20032;-72
2022/07/12 02:16:29;;;;;;;1.92;1.10;;;15.80;99.90;;;;;;2085777;28;20075;-72
2022/07/12 02:17:30;;;;;;;2.20;1.20;;;15.80;99.90;;;;;;2086222;28;20100;-72
2022/07/12 02:18:32;;;;;;;1.40;1.30;;;15.80;99.90;;;;;;2087230;28;20051;-72
2022/07/12 02:19:33;;;;;;;1.10;1.08;;;15.80;99.90;;;;;;2088451;28;20477;-72
2022/07/12 02:20:34;;;;;;;1.33;1.02;;;15.80;99.90;;;;;;2088423;28;20361;-72
2022/07/12 02:21:34;;;;;;;1.40;1.10;;;15.80;99.90;;;;;;2087443;28;20052;-72
2022/07/12 02:22:35;;;;;;;2.47;1.30;;;15.80;99.90;;;;;;2082983;28;20590;-72
2022/07/12 02:23:35;;;;;;;0.95;0.95;;;15.80;99.90;;;;;;2087925;28;20025;-72
2022/07/12 02:24:36;;;;;;;4.07;1.25;;;15.70;99.90;;;;;;2091852;28;20096;-72
2022/07/12 02:25:36;;;;;;;1.30;1.20;;;15.70;99.90;;;;;;2083330;28;20014;-72
2022/07/12 02:26:38;;;;;;;1.73;1.30;;;15.70;99.90;;;;;;2085696;28;20297;-72
2022/07/12 02:27:40;;;;;;;1.33;1.20;;;15.70;99.90;;;;;;2081999;28;20017;-72
2022/07/12 02:28:41;;;;;;;3.78;1.40;;;15.70;99.90;;;;;;2085903;28;20025;-72
2022/07/12 02:29:42;;;;;;;1.35;1.20;;;15.70;99.90;;;;;;2083246;28;20632;-72
2022/07/12 02:30:42;;;;;;;1.00;1.00;;;15.70;99.90;;;;;;2086026;28;20428;-72
2022/07/12 02:31:43;;;;;;;1.30;1.20;;;15.70;99.90;;;;;;2083155;28;20477;-72
2022/07/12 02:32:44;;;;;;;1.20;1.10;;;15.70;99.90;;;;;;2088548;28;20033;-72
2022/07/12 02:33:44;;;;;;;1.45;1.35;;;15.60;99.90;;;;;;2086762;28;20465;-72
2022/07/12 02:34:45;;;;;;;1.48;1.38;;;15.70;99.90;;;;;;2086617;28;20381;-72
2022/07/12 02:35:45;;;;;;;1.30;1.20;;;15.60;99.90;;;;;;2086052;28;20540;-72
2022/07/12 02:36:46;;;;;;;1.60;1.42;;;15.70;99.90;;;;;;2081272;28;20017;-73
2022/07/12 02:37:47;;;;;;;1.70;1.60;;;15.60;99.90;;;;;;2084805;28;20103;-72
2022/07/12 02:38:48;;;;;;;1.50;1.38;;;15.60;99.90;;;;;;2085561;28;20500;-72
2022/07/12 02:39:48;;;;;;;1.60;1.50;;;15.60;99.90;;;;;;2083367;28;20397;-72
2022/07/12 02:40:55;;;;;;;2.45;1.40;;;15.60;99.90;;;;;;2091816;28;20048;-72
2022/07/12 02:41:55;;;;;;;1.35;1.30;;;15.60;99.90;;;;;;2089400;28;20389;-72
2022/07/12 02:42:56;;;;;;;1.83;1.35;;;15.60;99.90;;;;;;2087496;28;20033;-72
2022/07/12 02:43:57;;;;;;;1.45;1.35;;;15.60;99.90;;;;;;2086326;28;20469;-72
2022/07/12 02:44:58;;;;;;;2.78;1.45;;;15.60;99.90;;;;;;2084310;28;20013;-72
2022/07/12 02:46:07;;;;;;;1.50;1.40;;;15.50;99.90;;;;;;2086320;28;20017;-72
2022/07/12 02:47:08;;;;;;;1.42;1.33;;;15.50;99.90;;;;;;2086591;28;20025;-72
2022/07/12 02:48:12;;;;;;;1.40;1.30;;;15.50;99.90;;;;;;2086300;28;20029;-72
2022/07/12 02:49:12;;;;;;;2.22;1.55;;;15.50;99.90;;;;;;2086841;28;20045;-72
2022/07/12 02:50:13;;;;;;;1.30;1.20;;;15.50;99.90;;;;;;2085851;28;20464;-72
2022/07/12 02:51:13;;;;;;;1.52;1.42;;;15.50;99.90;;;;;;2087587;28;20033;-72
2022/07/12 02:52:14;;;;;;;2.15;1.50;;;15.50;99.90;;;;;;2084372;28;20374;-72
2022/07/12 02:53:16;;;;;;;1.77;1.50;;;15.50;99.90;;;;;;2082411;28;20025;-72
2022/07/12 02:54:16;;;;;;;2.00;1.50;;;15.50;99.90;;;;;;2084336;28;20028;-72
2022/07/12 02:55:17;;;;;;;1.50;1.40;;;15.50;99.90;;;;;;2084779;28;20029;-72
2022/07/12 02:56:18;;;;;;;1.60;1.50;;;15.40;99.90;;;;;;2086559;28;20037;-72
2022/07/12 02:57:18;;;;;;;1.85;1.42;;;15.40;99.90;;;;;;2085904;28;20381;-72
2022/07/12 02:58:19;;;;;;;1.52;1.33;;;15.40;99.90;;;;;;2084638;28;20036;-72
2022/07/12 02:59:19;;;;;;;1.50;1.40;;;15.50;99.90;;;;;;2086644;28;20037;-72
2022/07/12 03:00:20;;;;;;;2.10;1.48;;;15.40;99.90;;;;;;2086421;28;20059;-72
2022/07/12 03:01:21;;;;;;;1.33;1.23;;;15.40;99.90;;;;;;2084797;28;20397;-72
2022/07/12 03:02:22;;;;;;;1.83;1.73;;;15.40;99.90;;;;;;2085277;28;20021;-72
2022/07/12 03:03:22;;;;;;;1.58;1.42;;;15.40;99.90;;;;;;2086409;28;20017;-72
2022/07/12 03:04:23;;;;;;;1.67;1.58;;;15.40;99.90;;;;;;2085753;28;20049;-72
2022/07/12 03:05:23;;;;;;;1.73;1.45;;;15.40;99.90;;;;;;2085105;28;20089;-72
2022/07/12 03:06:24;;;;;;;1.38;1.27;;;15.40;99.90;;;;;;2085248;28;20469;-72
2022/07/12 03:07:25;;;;;;;1.85;1.75;;;15.40;99.90;;;;;;2088775;28;20098;-72
2022/07/12 03:08:25;;;;;;;1.50;1.40;;;15.40;99.90;;;;;;2087486;28;20427;-72
2022/07/12 03:09:26;;;;;;;2.30;1.17;;;15.40;99.90;;;;;;2084006;28;20045;-72
2022/07/12 03:10:26;;;;;;;2.45;1.38;;;15.40;99.90;;;;;;2084004;28;20101;-72
2022/07/12 03:11:27;;;;;;;1.80;1.30;;;15.30;99.90;;;;;;2085205;28;20075;-72
2022/07/12 03:12:28;;;;;;;2.17;1.88;;;15.40;99.90;;;;;;2086913;28;20056;-72
2022/07/12 03:13:28;;;;;;;2.35;1.65;;;15.30;99.90;;;;;;2082505;28;20057;-72
2022/07/12 03:14:29;;;;;;;1.70;1.60;;;15.30;99.90;;;;;;2085422;28;20028;-72
2022/07/12 03:15:30;;;;;;;2.63;1.55;;;15.30;99.90;;;;;;2085404;28;20107;-72
2022/07/12 03:16:31;;;;;;;2.00;1.70;;;15.30;99.90;;;;;;2085989;28;20092;-72
2022/07/12 03:17:34;;;;;;;1.67;1.58;;;15.30;99.90;;;;;;2083769;28;20120;-72
2022/07/12 03:18:35;;;;;;;2.10;1.70;;;15.30;99.90;;;;;;2088031;28;20108;-72
2022/07/12 03:19:36;;;;;;;2.97;1.50;;;15.30;99.90;;;;;;2087291;28;20063;-72
2022/07/12 03:20:36;;;;;;;2.22;1.60;;;15.30;99.90;;;;;;2086301;28;20021;-72
2022/07/12 03:21:37;;;;;;;1.60;1.50;;;15.30;99.90;;;;;;2085117;28;20029;-72
2022/07/12 03:22:38;;;;;;;1.98;1.80;;;15.30;99.90;;;;;;2084764;28;20132;-72
2022/07/12 03:23:39;;;;;;;4.50;1.80;;;15.30;99.90;;;;;;2087219;28;20020;-72
2022/07/12 03:24:40;;;;;;;1.65;1.55;;;15.30;99.90;;;;;;2087959;28;20013;-72
2022/07/12 03:25:40;;;;;;;1.83;1.60;;;15.30;99.90;;;;;;2085324;28;20112;-72
2022/07/12 03:26:41;;;;;;;2.10;1.50;;;15.20;99.90;;;;;;2086882;28;20476;-72
2022/07/12 03:27:42;;;;;;;2.38;1.83;;;15.20;99.90;;;;;;2087297;28;20416;-72
2022/07/12 03:28:43;;;;;;;2.10;1.88;;;15.20;99.90;;;;;;2088413;28;20013;-72
2022/07/12 03:29:44;;;;;;;2.20;1.63;;;15.20;99.90;;;;;;2086780;28;20088;-72
2022/07/12 03:30:44;;;;;;;2.83;2.00;;;15.20;99.90;;;;;;2085067;28;20052;-72
2022/07/12 03:31:45;;;;;;;2.15;1.48;;;15.20;99.90;;;;;;2082131;28;20036;-72
2022/07/12 03:32:45;;;;;;;2.08;1.90;;;15.20;99.90;;;;;;2083967;28;20029;-72
2022/07/12 03:33:46;;;;;;;3.30;1.70;;;15.20;99.90;;;;;;2082406;28;20025;-72
2022/07/12 03:34:46;;;;;;;2.53;1.83;;;15.20;99.90;;;;;;2085698;28;20021;-72
2022/07/12 03:35:47;;;;;;;2.40;2.20;;;15.20;99.90;;;;;;2084987;28;20026;-72
2022/07/12 03:36:48;;;;;;;2.55;1.80;;;15.20;99.90;;;;;;2085339;28;20049;-72
2022/07/12 03:37:50;;;;;;;3.55;1.90;;;15.20;99.90;;;;;;2083693;28;20689;-72
2022/07/12 03:38:51;;;;;;;5.50;2.05;;;15.10;99.90;;;;;;2084595;28;20120;-72
2022/07/12 03:39:53;;;;;;;3.65;1.70;;;15.10;99.90;;;;;;2085047;28;20025;-72
2022/07/12 03:40:53;;;;;;;2.58;2.08;;;15.20;99.90;;;;;;2084890;28;20424;-72
2022/07/12 03:41:54;;;;;;;4.20;1.90;;;15.10;99.90;;;;;;2085323;28;20029;-72
2022/07/12 03:42:55;;;;;;;5.03;2.50;;;15.10;99.90;;;;;;2085624;28;20021;-72
2022/07/12 03:43:55;;;;;;;2.22;1.90;;;15.10;99.90;;;;;;2085840;28;20024;-72
2022/07/12 03:44:56;;;;;;;2.53;2.20;;;15.10;99.90;;;;;;2084913;28;20126;-72
2022/07/12 03:45:56;;;;;;;2.10;2.00;;;15.10;99.90;;;;;;2084188;28;20100;-72
2022/07/12 03:46:58;;;;;;;2.88;2.10;;;15.10;99.90;;;;;;2083086;28;20089;-72
2022/07/12 03:47:58;;;;;;;2.20;1.98;;;15.10;99.90;;;;;;2085932;28;20064;-72
2022/07/12 03:48:59;;;;;;;4.13;2.03;;;15.10;99.90;;;;;;2084533;28;20032;-72
2022/07/12 03:50:02;;;;;;;3.55;2.30;;;15.10;99.90;;;;;;2084535;28;20493;-72
2022/07/12 03:51:02;;;;;;;3.80;1.90;;;15.10;99.90;;;;;;2085192;28;20029;-72
2022/07/12 03:52:03;;;;;;;6.20;2.65;;;15.10;99.90;;;;;;2083578;28;20029;-72
2022/07/12 03:53:04;;;;;;;3.08;2.20;;;15.10;99.90;;;;;;2084309;28;20157;-72
2022/07/12 03:54:07;;;;;;;4.63;2.33;;;15.10;99.90;;;;;;2084474;28;20036;-72
2022/07/12 03:55:09;;;;;;;2.20;1.95;;;15.10;99.90;;;;;;2083221;28;20025;-72
2022/07/12 03:57:13;;;;;;;3.45;2.38;;;15.10;99.90;;;;;;2086095;28;20895;-72
2022/07/12 03:57:30;;;;;;;4.05;1.98;;;15.10;99.90;;;;;;2083772;28;20116;-72
2022/07/12 03:58:30;;;;;;;2.00;1.80;;;15.10;99.90;;;;;;2083845;28;20523;-72
2022/07/12 03:59:31;;;;;;;2.53;2.25;;;15.10;99.90;;;;;;2085657;28;20030;-72
2022/07/12 04:00:32;;;;;;;3.65;2.28;;;15.10;99.90;;;;;;2087180;28;20545;-72
2022/07/12 04:01:32;;;;;;;4.30;2.30;;;15.10;99.90;;;;;;2086550;28;20108;-72
2022/07/12 04:02:33;;;;;;;3.88;2.00;;;15.10;99.90;;;;;;2086250;28;20071;-72
2022/07/12 04:03:34;;;;;;;2.97;1.83;;;15.10;99.90;;;;;;2084770;28;20021;-72
2022/07/12 04:04:34;;;;;;;3.38;2.25;;;15.10;99.90;;;;;;2088113;28;20021;-72
2022/07/12 04:05:35;;;;;;;2.17;2.00;;;15.20;99.90;;;;;;2086572;28;20113;-72
2022/07/12 04:06:36;;;;;;;2.22;2.05;;;15.20;99.90;;;;;;2084698;28;20018;-72
2022/07/12 04:07:37;;;;;;;5.38;2.35;;;15.20;99.90;;;;;;2082352;28;20088;-72
2022/07/12 04:08:38;;;;;;;2.38;2.03;;;15.30;99.90;;;;;;2082730;28;20036;-72
2022/07/12 04:09:38;;;;;;;4.93;2.03;;;15.30;99.90;;;;;;2082482;28;20022;-72
2022/07/12 04:10:39;;;;;;;5.32;1.98;;;15.40;99.90;;;;;;2085565;28;20026;-72
2022/07/12 04:11:40;;;;;;;2.47;1.90;;;15.50;99.90;;;;;;2084570;28;20021;-72
2022/07/12 04:12:40;;;;;;;3.42;2.00;;;15.60;99.90;;;;;;2081697;28;20052;-72
2022/07/12 04:13:41;;;;;;;2.00;1.90;;;15.70;99.90;;;;;;2085612;28;20036;-72
2022/07/12 04:14:44;;;;;;;3.05;2.00;;;15.90;99.90;;;;;;2085375;28;20084;-72
2022/07/12 04:15:45;;;;;;;2.50;2.00;;;16.00;99.90;;;;;;2085524;28;20021;-72
2022/07/12 04:16:46;;;;;;;3.45;2.03;;;16.10;99.90;;;;;;2086822;28;20092;-72
2022/07/12 04:17:46;;;;;;;3.20;1.90;;;16.20;99.90;;;;;;2081461;28;20448;-72
2022/07/12 04:18:47;;;;;;;2.00;1.73;;;16.30;99.90;;;;;;2083145;28;20013;-72
2022/07/12 04:19:47;;;;;;;5.47;2.30;;;16.30;99.90;;;;;;2084952;28;20026;-72
2022/07/12 04:20:48;;;;;;;2.55;1.98;;;16.30;99.90;;;;;;2081885;28;20052;-72
2022/07/12 04:21:49;;;;;;;2.20;2.00;;;16.30;99.90;;;;;;2084427;28;20112;-72
2022/07/12 04:22:50;;;;;;;2.95;1.60;;;16.30;99.90;;;;;;2085017;28;20060;-72
2022/07/12 04:23:50;;;;;;;2.60;2.20;;;16.40;99.90;;;;;;2081436;28;20026;-72
2022/07/12 04:24:51;;;;;;;3.17;1.98;;;16.30;99.90;;;;;;2084738;28;20056;-72
2022/07/12 04:25:52;;;;;;;2.45;2.00;;;16.40;99.90;;;;;;2083259;28;20037;-72
2022/07/12 04:26:52;;;;;;;2.45;2.08;;;16.40;99.90;;;;;;2085818;28;20021;-72
2022/07/12 04:27:55;;;;;;;2.88;2.05;;;16.50;99.90;;;;;;2082942;28;20033;-73
2022/07/12 04:28:55;;;;;;;3.17;1.90;;;16.70;99.90;;;;;;2084584;28;20016;-72
2022/07/12 04:29:56;;;;;;;1.90;1.80;;;16.80;99.90;;;;;;2085252;28;20024;-72
2022/07/12 04:30:57;;;;;;;2.13;1.92;;;17.00;99.90;;;;;;2084182;28;20017;-72
2022/07/12 04:31:57;;;;;;;4.40;2.03;;;17.20;99.90;;;;;;2085477;28;20191;-72
2022/07/12 04:32:58;;;;;;;4.88;2.13;;;17.40;99.90;;;;;;2088806;28;20507;-72
2022/07/12 04:33:58;;;;;;;3.17;2.22;;;17.60;99.90;;;;;;2083778;28;20052;-72
2022/07/12 04:34:59;;;;;;;2.13;1.95;;;17.80;99.90;;;;;;2082410;28;20068;-72
2022/07/12 04:35:59;;;;;;;4.47;1.88;;;17.90;99.90;;;;;;2082447;28;20032;-72
2022/07/12 04:37:00;;;;;;;2.50;2.00;;;18.00;99.90;;;;;;2082002;28;20029;-72
2022/07/12 04:38:01;;;;;;;5.30;2.53;;;18.00;99.90;;;;;;2082322;28;20033;-73
2022/07/12 04:39:02;;;;;;;2.38;2.00;;;18.00;99.90;;;;;;2083089;28;20059;-73
2022/07/12 04:40:04;;;;;;;2.33;1.60;;;18.00;99.90;;;;;;2080793;28;20033;-72
2022/07/12 04:41:04;;;;;;;3.72;1.92;;;18.00;99.90;;;;;;2082645;28;20100;-72
2022/07/12 04:42:05;;;;;;;2.80;1.70;;;18.00;99.90;;;;;;2084125;28;20029;-72
2022/07/12 04:43:05;;;;;;;1.75;1.65;;;18.00;99.90;;;;;;2082525;28;20140;-72
2022/07/12 04:44:07;;;;;;;2.40;1.90;;;18.00;99.90;;;;;;2082746;28;20021;-73
2022/07/12 04:45:08;;;;;;;3.15;2.10;;;18.00;99.90;;;;;;2087695;28;20024;-72
2022/07/12 04:46:10;;;;;;;2.95;1.95;;;18.10;99.90;;;;;;2086038;28;20057;-72
2022/07/12 04:47:11;;;;;;;3.00;2.00;;;18.10;99.90;;;;;;2086247;28;20473;-72
2022/07/12 04:48:12;;;;;;;2.15;1.77;;;18.10;99.90;;;;;;2085259;28;20543;-72
2022/07/12 04:49:13;;;;;;;3.53;1.90;;;18.20;99.90;;;;;;2085906;28;20029;-72
2022/07/12 04:50:14;;;;;;;2.67;1.73;;;18.20;99.90;;;;;;2084652;28;20421;-73
2022/07/12 04:51:16;;;;;;;3.45;1.77;;;18.30;99.90;;;;;;2085869;28;20745;-73
2022/07/12 04:52:17;;;;;;;2.97;1.77;;;18.40;99.90;;;;;;2085890;28;20020;-73
2022/07/12 04:53:17;;;;;;;2.40;2.00;;;18.40;99.90;;;;;;2083878;28;20071;-72
2022/07/12 04:54:18;;;;;;;6.88;2.13;;;18.50;99.90;;;;;;2085375;28;20029;-72
2022/07/12 04:55:18;;;;;;;3.53;2.17;;;18.50;99.90;;;;;;2084557;28;20593;-73
2022/07/12 04:56:19;;;;;;;2.47;1.77;;;18.60;99.90;;;;;;2083699;28;20032;-72
2022/07/12 04:57:20;;;;;;;3.40;2.03;;;18.70;99.90;;;;;;2084590;28;20100;-72
2022/07/12 04:58:20;;;;;;;6.30;2.00;;;18.80;99.90;;;;;;2084419;28;20022;-72
2022/07/12 04:59:25;;;;;;;2.30;1.60;;;18.90;99.90;;;;;;2086326;28;20035;-72
2022/07/12 05:00:25;;;;;;;2.80;1.80;;;18.90;99.90;;;;;;2086526;28;20021;-72
2022/07/12 05:01:26;;;;;;;4.25;2.35;;;19.00;99.90;;;;;;2085553;28;20018;-72
2022/07/12 05:02:27;;;;;;;7.65;2.15;;;19.10;99.90;;;;;;2087937;28;20037;-72
2022/07/12 05:03:28;;;;;;;4.80;2.53;;;19.20;99.90;;;;;;2084506;28;20025;-72
2022/07/12 05:04:33;;;;;;;5.30;2.28;;;19.30;99.90;;;;;;2084490;28;20014;-72
2022/07/12 05:05:34;;;;;;;3.50;2.05;;;19.40;99.90;;;;;;2082518;28;20096;-72
2022/07/12 05:06:34;;;;;;;4.13;1.77;;;19.50;99.90;;;;;;2084725;28;20079;-73
2022/07/12 05:07:35;;;;;;;3.67;2.40;;;19.50;99.90;;;;;;2084551;28;20025;-72
2022/07/12 05:08:36;;;;;;;4.97;2.38;;;19.60;99.90;;;;;;2083932;28;20029;-72
2022/07/12 05:09:36;;;;;;;4.28;2.65;;;19.70;99.90;;;;;;2084718;28;20032;-73
2022/07/12 05:10:37;;;;;;;3.22;2.22;;;19.80;99.90;;;;;;2084680;28;20400;-73
2022/07/12 05:11:37;;;;;;;3.72;2.28;;;19.90;99.90;;;;;;2081841;28;20032;-72
2022/07/12 05:12:38;;;;;;;4.32;2.15;;;19.90;99.90;;;;;;2084405;28;20026;-72
2022/07/12 05:13:38;;;;;;;3.17;2.25;;;20.00;99.90;;;;;;2085445;28;20072;-72
2022/07/12 05:14:39;;;;;;;4.25;1.98;;;20.10;99.90;;;;;;2086201;28;20029;-72
2022/07/12 05:15:40;;;;;;;4.00;1.95;;;20.20;99.90;;;;;;2084846;28;20393;-72
2022/07/12 05:16:40;;;;;;;3.95;2.20;;;20.30;99.90;;;;;;2084649;28;20028;-72
2022/07/12 05:17:41;;;;;;;2.58;2.10;;;20.40;99.90;;;;;;2087178;28;20029;-72
2022/07/12 05:18:41;;;;;;;3.13;2.10;;;20.40;99.90;;;;;;2083750;28;20083;-72